createdAt,value
2022-08-11T00:00:17.864Z,99132.00
2022-08-11T00:02:52.860Z,99137.00
2022-08-11T00:05:23.958Z,99136.00
2022-08-11T00:07:57.510Z,99141.00
2022-08-11T00:10:30.089Z,99138.00
2022-08-11T00:13:04.936Z,99141.00
2022-08-11T00:15:43.713Z,99131.00
2022-08-11T00:18:15.579Z,99131.00
2022-08-11T00:20:47.227Z,99127.00
2022-08-11T00:23:20.188Z,99130.00
2022-08-11T00:25:54.971Z,99137.00
2022-08-11T00:28:34.670Z,99133.00
2022-08-11T00:31:12.669Z,99133.00
2022-08-11T00:33:45.414Z,99131.00
2022-08-11T00:36:23.385Z,99136.00
2022-08-11T00:39:05.523Z,99141.00
2022-08-11T00:42:06.964Z,99148.00
2022-08-11T00:45:25.136Z,99150.00
2022-08-11T00:48:44.316Z,99144.00
2022-08-11T00:52:02.174Z,99148.00
2022-08-11T00:54:58.733Z,99150.00
2022-08-11T00:58:07.146Z,99154.00
2022-08-11T01:00:59.449Z,99144.00
2022-08-11T01:03:53.479Z,99148.00
2022-08-11T01:07:10.567Z,99145.00
2022-08-11T01:10:17.896Z,99153.00
2022-08-11T01:13:22.649Z,99147.00
2022-08-11T01:16:05.354Z,99142.00
2022-08-11T01:19:16.280Z,99141.00
2022-08-11T01:22:29.490Z,99149.00
2022-08-11T01:25:31.307Z,99149.00
2022-08-11T01:29:06.019Z,99146.00
2022-08-11T01:32:04.436Z,99145.00
2022-08-11T01:35:06.838Z,99146.00
2022-08-11T01:38:15.050Z,99142.00
2022-08-11T01:41:49.167Z,99141.00
2022-08-11T01:44:41.679Z,99136.00
2022-08-11T01:47:54.185Z,99142.00
2022-08-11T01:50:40.638Z,99133.00
2022-08-11T01:53:46.283Z,99132.00
2022-08-11T01:57:06.735Z,99153.00
2022-08-11T01:59:49.365Z,99132.00
2022-08-11T02:02:54.078Z,99132.00
2022-08-11T02:05:48.181Z,99137.00
2022-08-11T02:08:49.584Z,99151.00
2022-08-11T02:11:35.787Z,99146.00
2022-08-11T02:14:34.830Z,99128.00
2022-08-11T02:17:49.312Z,99130.00
2022-08-11T02:21:02.625Z,99129.00
2022-08-11T02:24:04.797Z,99145.00
2022-08-11T02:26:47.140Z,99116.00
2022-08-11T02:29:45.897Z,99120.00
2022-08-11T02:32:48.671Z,99128.00
2022-08-11T02:35:45.820Z,99122.00
2022-08-11T02:38:37.693Z,99119.00
2022-08-11T02:41:54.628Z,99117.00
2022-08-11T02:44:55.907Z,99110.00
2022-08-11T02:48:13.708Z,99120.00
2022-08-11T02:51:22.355Z,99121.00
2022-08-11T02:54:08.568Z,99118.00
2022-08-11T02:56:47.352Z,99117.00
2022-08-11T02:59:50.536Z,99123.00
2022-08-11T03:02:31.739Z,99123.00
2022-08-11T03:05:17.056Z,99130.00
2022-08-11T03:08:31.630Z,99122.00
2022-08-11T03:11:45.167Z,99127.00
2022-08-11T03:15:00.596Z,99130.00
2022-08-11T03:17:41.219Z,99123.00
2022-08-11T03:20:38.142Z,99125.00
2022-08-11T03:23:35.647Z,99131.00
2022-08-11T03:26:32.713Z,99130.00
2022-08-11T03:29:27.364Z,99127.00
2022-08-11T03:32:30.898Z,99130.00
2022-08-11T03:35:04.219Z,99130.00
2022-08-11T03:37:56.780Z,99139.00
2022-08-11T03:40:57.672Z,99139.00
2022-08-11T03:43:58.355Z,99140.00
2022-08-11T03:47:05.364Z,99151.00
2022-08-11T03:50:13.549Z,99145.00
2022-08-11T03:54:08.873Z,99149.00
2022-08-11T03:57:15.763Z,99144.00
2022-08-11T04:00:14.871Z,99144.00
2022-08-11T04:03:20.680Z,99146.00
2022-08-11T04:06:32.138Z,99140.00
2022-08-11T04:09:40.046Z,99134.00
2022-08-11T04:12:35.639Z,99150.00
2022-08-11T04:16:12.469Z,99138.00
2022-08-11T04:19:38.399Z,99145.00
2022-08-11T04:22:21.650Z,99143.00
2022-08-11T04:25:29.489Z,99138.00
2022-08-11T04:28:50.852Z,99141.00
2022-08-11T04:31:49.607Z,99148.00
2022-08-11T04:34:36.562Z,99147.00
2022-08-11T04:37:29.824Z,99163.00
2022-08-11T04:40:29.178Z,99174.00
2022-08-11T04:43:37.516Z,99149.00
2022-08-11T04:46:56.503Z,99148.00
2022-08-11T04:50:25.204Z,99153.00
2022-08-11T04:53:53.508Z,99149.00
2022-08-11T04:56:44.813Z,99150.00
2022-08-11T05:00:06.224Z,99148.00
2022-08-11T05:03:04.528Z,99160.00
2022-08-11T05:06:06.656Z,99161.00
2022-08-11T05:09:29.488Z,99166.00
2022-08-11T05:12:12.159Z,99159.00
2022-08-11T05:15:10.590Z,99154.00
2022-08-11T05:18:05.357Z,99147.00
2022-08-11T05:21:14.724Z,99151.00
2022-08-11T05:24:31.434Z,99164.00
2022-08-11T05:27:24.662Z,99154.00
2022-08-11T05:30:26.491Z,99157.00
2022-08-11T05:33:43.094Z,99152.00
2022-08-11T05:36:46.083Z,99152.00
2022-08-11T05:40:12.359Z,99153.00
2022-08-11T05:43:11.307Z,99154.00
2022-08-11T05:46:05.399Z,99153.00
2022-08-11T05:48:56.672Z,99152.00
2022-08-11T05:51:57.086Z,99151.00
2022-08-11T05:54:48.656Z,99158.00
2022-08-11T05:57:39.685Z,99165.00
2022-08-11T06:00:15.090Z,99149.00
2022-08-11T06:02:55.371Z,99147.00
2022-08-11T06:05:38.389Z,99156.00
2022-08-11T06:08:15.234Z,99151.00
2022-08-11T06:10:47.106Z,99154.00
2022-08-11T06:13:18.944Z,99156.00
2022-08-11T06:15:55.923Z,99150.00
2022-08-11T06:18:28.196Z,99149.00
2022-08-11T06:21:00.625Z,99148.00
2022-08-11T06:23:33.677Z,99151.00
2022-08-11T06:26:15.039Z,99149.00
2022-08-11T06:28:47.404Z,99151.00
2022-08-11T06:31:25.210Z,99152.00
2022-08-11T06:34:12.393Z,99151.00
2022-08-11T06:37:19.302Z,99152.00
2022-08-11T06:40:10.736Z,99154.00
2022-08-11T06:43:06.502Z,99155.00
2022-08-11T06:46:03.355Z,99155.00
2022-08-11T06:48:35.338Z,99146.00
2022-08-11T06:51:12.973Z,99150.00
2022-08-11T06:54:03.626Z,99152.00
2022-08-11T06:57:29.417Z,99149.00
2022-08-11T07:00:07.345Z,99152.00
2022-08-11T07:02:49.600Z,99148.00
2022-08-11T07:05:46.732Z,99149.00
2022-08-11T07:08:52.726Z,99154.00
2022-08-11T07:12:35.543Z,99148.00
2022-08-11T07:16:12.619Z,99147.00
2022-08-11T07:18:48.425Z,99150.00
2022-08-11T07:22:02.845Z,99144.00
2022-08-11T07:25:27.310Z,99141.00
2022-08-11T07:28:30.425Z,99136.00
2022-08-11T07:31:08.360Z,99140.00
2022-08-11T07:34:07.070Z,99137.00
2022-08-11T07:36:51.277Z,99129.00
2022-08-11T07:39:29.390Z,99127.00
2022-08-11T07:42:07.667Z,99140.00
2022-08-11T07:45:01.028Z,99136.00
2022-08-11T07:47:51.893Z,99139.00
2022-08-11T07:50:42.308Z,99134.00
2022-08-11T07:53:14.728Z,99132.00
2022-08-11T07:55:53.422Z,99129.00
2022-08-11T07:58:53.345Z,99128.00
2022-08-11T08:01:45.606Z,99135.00
2022-08-11T08:04:37.567Z,99129.00
2022-08-11T08:07:27.853Z,99124.00
2022-08-11T08:10:20.087Z,99122.00
2022-08-11T08:13:10.132Z,99127.00
2022-08-11T08:16:00.453Z,99131.00
2022-08-11T08:18:35.941Z,99117.00
2022-08-11T08:21:13.127Z,99115.00
2022-08-11T08:23:53.824Z,99123.00
2022-08-11T08:26:51.448Z,99115.00
2022-08-11T08:29:41.893Z,99123.00
2022-08-11T08:32:13.443Z,99111.00
2022-08-11T08:34:45.835Z,99119.00
2022-08-11T08:37:45.301Z,99120.00
2022-08-11T08:40:13.824Z,99116.00
2022-08-11T08:42:51.725Z,99117.00
2022-08-11T08:45:24.483Z,99113.00
2022-08-11T08:48:01.772Z,99120.00
2022-08-11T08:50:56.246Z,99107.00
2022-08-11T08:53:33.281Z,99117.00
2022-08-11T08:56:06.091Z,99111.00
2022-08-11T08:58:39.013Z,99108.00
2022-08-11T09:01:11.474Z,99110.00
2022-08-11T09:04:05.267Z,99096.00
2022-08-11T09:06:39.871Z,99110.00
2022-08-11T09:09:12.346Z,99102.00
2022-08-11T09:11:51.146Z,99108.00
2022-08-11T09:14:47.091Z,99107.00
2022-08-11T09:17:23.654Z,99114.00
2022-08-11T09:20:26.573Z,99112.00
2022-08-11T09:26:30.309Z,99111.00
2022-08-11T09:29:04.620Z,99106.00
2022-08-11T09:31:40.090Z,99115.00
2022-08-11T09:34:14.125Z,99108.00
2022-08-11T09:37:04.547Z,99111.00
2022-08-11T09:39:57.594Z,99111.00
2022-08-11T09:42:49.094Z,99120.00
2022-08-11T09:45:20.411Z,99133.00
2022-08-11T09:47:51.667Z,99106.00
2022-08-11T09:50:22.976Z,99134.00
2022-08-11T09:53:34.675Z,99098.00
2022-08-11T09:55:47.149Z,99103.00
2022-08-11T09:58:41.807Z,99109.00
2022-08-11T10:01:27.299Z,99103.00
2022-08-11T10:04:15.403Z,99108.00
2022-08-11T10:07:05.542Z,99102.00
2022-08-11T10:09:50.906Z,99102.00
2022-08-11T10:12:33.189Z,99101.00
2022-08-11T10:15:28.631Z,99100.00
2022-08-11T10:18:26.470Z,99092.00
2022-08-11T10:21:07.297Z,99090.00
2022-08-11T10:24:00.887Z,99089.00
2022-08-11T10:26:53.641Z,99090.00
2022-08-11T10:29:51.161Z,99093.00
2022-08-11T10:32:57.619Z,99091.00
2022-08-11T10:35:32.640Z,99080.00
2022-08-11T10:38:08.622Z,99074.00
2022-08-11T10:40:45.732Z,99087.00
2022-08-11T10:43:18.804Z,99071.00
2022-08-11T10:46:30.714Z,99072.00
2022-08-11T10:49:02.481Z,99077.00
2022-08-11T10:51:53.878Z,99067.00
2022-08-11T10:54:47.316Z,99059.00
2022-08-11T10:57:37.201Z,99069.00
2022-08-11T11:00:15.135Z,99057.00
2022-08-11T11:03:07.178Z,99052.00
2022-08-11T11:06:12.919Z,99047.00
2022-08-11T11:08:57.554Z,99058.00
2022-08-11T11:12:07.035Z,99042.00
2022-08-11T11:15:03.252Z,99050.00
2022-08-11T11:18:01.833Z,99050.00
2022-08-11T11:20:58.050Z,99030.00
2022-08-11T11:24:14.868Z,99035.00
2022-08-11T11:27:25.469Z,99031.00
2022-08-11T11:30:10.245Z,99042.00
2022-08-11T11:33:13.635Z,99005.00
2022-08-11T11:36:32.882Z,99007.00
2022-08-11T11:39:04.155Z,99015.00
2022-08-11T11:41:36.567Z,99019.00
2022-08-11T11:44:11.171Z,99016.00
2022-08-11T11:46:49.448Z,99031.00
2022-08-11T11:49:27.275Z,99014.00
2022-08-11T11:52:01.832Z,99010.00
2022-08-11T11:54:34.179Z,99000.00
2022-08-11T11:57:24.399Z,99001.00
2022-08-11T12:00:18.505Z,99001.00
2022-08-11T12:02:50.591Z,99002.00
2022-08-11T12:05:22.372Z,98997.00
2022-08-11T12:08:14.712Z,98993.00
2022-08-11T12:11:13.506Z,98993.00
2022-08-11T12:13:53.037Z,98996.00
2022-08-11T12:16:34.444Z,98997.00
2022-08-11T12:19:21.542Z,98989.00
2022-08-11T12:22:14.501Z,98987.00
2022-08-11T12:25:04.925Z,98979.00
2022-08-11T12:27:36.504Z,98980.00
2022-08-11T12:30:11.172Z,98982.00
2022-08-11T12:32:44.013Z,98980.00
2022-08-11T12:35:16.275Z,98978.00
2022-08-11T12:37:54.257Z,98976.00
2022-08-11T12:41:15.685Z,98971.00
2022-08-11T12:44:02.093Z,98970.00
2022-08-11T12:46:37.948Z,98971.00
2022-08-11T12:49:43.228Z,98970.00
2022-08-11T12:52:24.923Z,98961.00
2022-08-11T12:55:12.956Z,98959.00
2022-08-11T12:58:06.957Z,98961.00
2022-08-11T13:00:59.898Z,98958.00
2022-08-11T13:03:52.577Z,98941.00
2022-08-11T13:06:28.539Z,98946.00
2022-08-11T13:09:01.537Z,98952.00
2022-08-11T13:11:56.800Z,98937.00
2022-08-11T13:14:28.710Z,98948.00
2022-08-11T13:17:19.525Z,98932.00
2022-08-11T13:19:51.951Z,98933.00
2022-08-11T13:22:25.458Z,98930.00
2022-08-11T13:24:58.135Z,98939.00
2022-08-11T13:27:29.169Z,98932.00
2022-08-11T13:30:19.536Z,98927.00
2022-08-11T13:32:53.708Z,98931.00
2022-08-11T13:35:25.252Z,98908.00
2022-08-11T13:38:19.007Z,98922.00
2022-08-11T13:40:55.649Z,98923.00
2022-08-11T13:43:30.693Z,98909.00
2022-08-11T13:46:20.200Z,98926.00
2022-08-11T13:49:00.648Z,98913.00
2022-08-11T13:51:35.870Z,98915.00
2022-08-11T13:54:22.184Z,98905.00
2022-08-11T13:56:57.387Z,98904.00
2022-08-11T13:59:31.205Z,98904.00
2022-08-11T14:02:21.825Z,98908.00
2022-08-11T14:05:12.545Z,98904.00
2022-08-11T14:07:59.653Z,98901.00
2022-08-11T14:10:34.282Z,98907.00
2022-08-11T14:13:42.312Z,98897.00
2022-08-11T14:16:57.915Z,98888.00
2022-08-11T14:19:30.980Z,98893.00
2022-08-11T14:22:09.286Z,98874.00
2022-08-11T14:24:43.844Z,98869.00
2022-08-11T14:28:41.757Z,98880.00
2022-08-11T14:30:27.866Z,98891.00
2022-08-11T14:32:59.871Z,98876.00
2022-08-11T14:35:30.974Z,98888.00
2022-08-11T14:38:05.426Z,98881.00
2022-08-11T14:40:55.618Z,98879.00
2022-08-11T14:44:12.319Z,98884.00
2022-08-11T14:46:57.139Z,98883.00
2022-08-11T14:49:29.572Z,98872.00
2022-08-11T14:52:01.650Z,98864.00
2022-08-11T14:54:52.042Z,98865.00
2022-08-11T14:57:56.289Z,98862.00
2022-08-11T15:00:18.195Z,98864.00
2022-08-11T15:03:08.569Z,98863.00
2022-08-11T15:05:58.364Z,98860.00
2022-08-11T15:08:52.680Z,98843.00
2022-08-11T15:11:47.684Z,98856.00
2022-08-11T15:14:39.903Z,98844.00
2022-08-11T15:17:13.094Z,98836.00
2022-08-11T15:20:05.361Z,98832.00
2022-08-11T15:22:54.728Z,98840.00
2022-08-11T15:25:26.846Z,98834.00
2022-08-11T15:28:18.207Z,98833.00
2022-08-11T15:31:13.715Z,98837.00
2022-08-11T15:34:07.851Z,98836.00
2022-08-11T15:36:59.391Z,98835.00
2022-08-11T15:40:06.227Z,98823.00
2022-08-11T15:43:08.420Z,98820.00
2022-08-11T15:45:52.355Z,98819.00
2022-08-11T15:48:32.094Z,98821.00
2022-08-11T15:51:33.477Z,98819.00
2022-08-11T15:54:11.515Z,98816.00
2022-08-11T15:56:46.701Z,98817.00
2022-08-11T15:59:41.995Z,98812.00
2022-08-11T16:02:17.929Z,98817.00
2022-08-11T16:04:49.747Z,98818.00
2022-08-11T16:07:27.024Z,98810.00
2022-08-11T16:10:18.764Z,98819.00
2022-08-11T16:13:07.070Z,98811.00
2022-08-11T16:16:03.584Z,98810.00
2022-08-11T16:18:59.561Z,98812.00
2022-08-11T16:21:36.580Z,98807.00
2022-08-11T16:27:01.418Z,98804.00
2022-08-11T16:27:13.560Z,98800.00
2022-08-11T16:29:48.171Z,98811.00
2022-08-11T16:32:25.805Z,98794.00
2022-08-11T16:35:22.383Z,98802.00
2022-08-11T16:38:14.167Z,98803.00
2022-08-11T16:40:47.164Z,98794.00
2022-08-11T16:43:40.731Z,98796.00
2022-08-11T16:46:37.588Z,98794.00
2022-08-11T16:49:18.517Z,98801.00
2022-08-11T16:51:49.473Z,98805.00
2022-08-11T16:54:20.827Z,98804.00
2022-08-11T16:56:54.262Z,98783.00
2022-08-11T16:59:36.647Z,98802.00
2022-08-11T17:02:13.006Z,98804.00
2022-08-11T17:05:28.683Z,98799.00
2022-08-11T17:08:22.797Z,98798.00
2022-08-11T17:11:20.768Z,98801.00
2022-08-11T17:14:00.607Z,98792.00
2022-08-11T17:16:41.809Z,98798.00
2022-08-11T17:20:40.316Z,98787.00
2022-08-11T17:22:45.074Z,98801.00
2022-08-11T17:25:17.306Z,98795.00
2022-08-11T17:27:50.881Z,98787.00
2022-08-11T17:30:44.632Z,98787.00
2022-08-11T17:33:35.158Z,98795.00
2022-08-11T17:36:07.324Z,98776.00
2022-08-11T17:38:40.038Z,98772.00
2022-08-11T17:41:31.265Z,98773.00
2022-08-11T17:44:22.649Z,98764.00
2022-08-11T17:47:13.582Z,98767.00
2022-08-11T17:49:45.234Z,98775.00
2022-08-11T17:52:35.738Z,98772.00
2022-08-11T17:55:51.572Z,98771.00
2022-08-11T17:58:38.067Z,98769.00
2022-08-11T18:01:11.514Z,98786.00
2022-08-11T18:03:57.577Z,98781.00
2022-08-11T18:06:34.843Z,98788.00
2022-08-11T18:09:34.127Z,98780.00
2022-08-11T18:12:26.046Z,98779.00
2022-08-11T18:15:16.447Z,98783.00
2022-08-11T18:18:06.382Z,98788.00
2022-08-11T18:20:55.991Z,98779.00
2022-08-11T18:23:47.260Z,98788.00
2022-08-11T18:26:40.255Z,98783.00
2022-08-11T18:29:31.065Z,98797.00
2022-08-11T18:32:49.207Z,98795.00
2022-08-11T18:35:41.136Z,98804.00
2022-08-11T18:38:34.758Z,98797.00
2022-08-11T18:41:27.260Z,98805.00
2022-08-11T18:44:22.732Z,98811.00
2022-08-11T18:47:14.261Z,98803.00
2022-08-11T18:50:05.852Z,98802.00
2022-08-11T18:52:56.636Z,98811.00
2022-08-11T18:55:47.898Z,98819.00
2022-08-11T18:58:46.361Z,98810.00
2022-08-11T19:01:37.864Z,98821.00
2022-08-11T19:04:30.024Z,98822.00
2022-08-11T19:07:22.060Z,98821.00
2022-08-11T19:10:14.574Z,98832.00
2022-08-11T19:13:06.598Z,98834.00
2022-08-11T19:15:57.699Z,98837.00
2022-08-11T19:18:49.033Z,98844.00
2022-08-11T19:21:40.000Z,98842.00
2022-08-11T19:24:30.322Z,98835.00
2022-08-11T19:27:21.691Z,98848.00
2022-08-11T19:30:14.296Z,98852.00
2022-08-11T19:33:04.289Z,98855.00
2022-08-11T19:35:55.194Z,98858.00
2022-08-11T19:38:45.165Z,98850.00
2022-08-11T19:41:56.468Z,98854.00
2022-08-11T19:44:47.799Z,98856.00
2022-08-11T19:47:39.119Z,98860.00
2022-08-11T19:50:29.010Z,98849.00
2022-08-11T19:53:20.771Z,98853.00
2022-08-11T19:56:11.898Z,98845.00
2022-08-11T19:59:03.169Z,98857.00
2022-08-11T20:02:01.215Z,98859.00
2022-08-11T20:05:02.407Z,98856.00
2022-08-11T20:07:52.786Z,98855.00
2022-08-11T20:10:44.199Z,98846.00
2022-08-11T20:13:35.815Z,98860.00
2022-08-11T20:16:35.253Z,98854.00
2022-08-11T20:19:56.495Z,98854.00
2022-08-11T20:22:37.559Z,98857.00
2022-08-11T20:25:28.507Z,98861.00
2022-08-11T20:28:17.813Z,98850.00
2022-08-11T20:31:08.284Z,98858.00
2022-08-11T20:33:59.626Z,98862.00
2022-08-11T20:36:54.115Z,98864.00
2022-08-11T20:39:45.140Z,98862.00
2022-08-11T20:42:37.127Z,98879.00
2022-08-11T20:45:28.977Z,98869.00
2022-08-11T20:48:21.067Z,98870.00
2022-08-11T20:51:17.355Z,98872.00
2022-08-11T20:54:07.975Z,98870.00
2022-08-11T20:57:02.061Z,98871.00
2022-08-11T21:03:04.749Z,98873.00
2022-08-11T21:06:09.709Z,98882.00
2022-08-11T21:09:01.850Z,98885.00
2022-08-11T21:11:55.379Z,98883.00
2022-08-11T21:14:45.179Z,98894.00
2022-08-11T21:18:00.038Z,98885.00
2022-08-11T21:20:51.628Z,98896.00
2022-08-11T21:23:44.651Z,98890.00
2022-08-11T21:26:41.235Z,98890.00
2022-08-11T21:29:31.740Z,98887.00
2022-08-11T21:32:21.479Z,98889.00
2022-08-11T21:35:12.587Z,98885.00
2022-08-11T21:38:03.851Z,98893.00
2022-08-11T21:41:00.166Z,98890.00
2022-08-11T21:43:51.690Z,98898.00
2022-08-11T21:46:42.433Z,98896.00
2022-08-11T21:49:33.921Z,98890.00
2022-08-11T21:52:24.738Z,98899.00
2022-08-11T21:55:15.467Z,98885.00
2022-08-11T21:58:06.034Z,98886.00
2022-08-11T22:00:56.298Z,98884.00
2022-08-11T22:03:49.672Z,98881.00
2022-08-11T22:06:40.981Z,98885.00
2022-08-11T22:09:31.323Z,98877.00
2022-08-11T22:12:34.375Z,98879.00
2022-08-11T22:15:27.254Z,98872.00
2022-08-11T22:18:19.114Z,98865.00
2022-08-11T22:21:09.183Z,98873.00
2022-08-11T22:24:05.359Z,98861.00
2022-08-11T22:26:57.848Z,98865.00
2022-08-11T22:29:51.155Z,98873.00
2022-08-11T22:32:41.578Z,98860.00
2022-08-11T22:35:31.586Z,98885.00
2022-08-11T22:38:22.137Z,98868.00
2022-08-11T22:41:12.132Z,98865.00
2022-08-11T22:44:01.607Z,98876.00
2022-08-11T22:46:53.136Z,98883.00
2022-08-11T22:49:57.672Z,98882.00
2022-08-11T22:52:49.347Z,98884.00
2022-08-11T22:55:42.686Z,98877.00
2022-08-11T22:58:34.181Z,98880.00
2022-08-11T23:01:24.615Z,98889.00
2022-08-11T23:04:15.052Z,98890.00
2022-08-11T23:07:06.216Z,98891.00
2022-08-11T23:09:57.456Z,98884.00
2022-08-11T23:12:47.574Z,98884.00
2022-08-11T23:15:39.230Z,98874.00
2022-08-11T23:18:32.048Z,98880.00
2022-08-11T23:21:22.214Z,98875.00
2022-08-11T23:24:12.419Z,98874.00
2022-08-11T23:27:02.811Z,98878.00
2022-08-11T23:29:54.152Z,98876.00
2022-08-11T23:32:46.267Z,98884.00
2022-08-11T23:35:51.945Z,98887.00
2022-08-11T23:38:46.091Z,98893.00
2022-08-11T23:41:36.427Z,98878.00
2022-08-11T23:44:27.828Z,98882.00
2022-08-11T23:47:22.608Z,98874.00
2022-08-11T23:50:12.886Z,98874.00
2022-08-11T23:53:07.640Z,98876.00
2022-08-11T23:55:57.263Z,98881.00
2022-08-11T23:58:47.639Z,98890.00
